Insider Stock Trading History of Dow Stephen M


The following table details the trading activities (stock purchases, stock sales, and stock option exercises) reported to the Securities and Exchange Commission (SEC) by insider Dow Stephen M since year 2005. The trader's CIK number is 1033501. At the time of this reporting, Dow Stephen M is the Director of Alder Biopharmaceuticals Inc . (stock ticker symbol ALDR). See this page for all insider trading activities at Alder Biopharmaceuticals Inc .

Note that in the past DOW STEPHEN M also reported insider trading activities as an insider of the following companies:
Stock purchases, sales, and option exercises reported by insider Dow Stephen M since 2005.
  Trade Date   Symbol Company Name (Issuer) Trade Type     Shares       Price ($)   Value ($)
2017-07-18 ALDR Alder Biopharmaceuticals Inc Buy 25,000 10.00 250,000
2015-11-30 ALDR Alder Biopharmaceuticals Inc Sale 88 37.11 3,265
2015-08-31 ALDR Alder Biopharmaceuticals Inc Sale 16,218 38.75 628,463
2015-08-11 ALDR Alder Biopharmaceuticals Inc Sale 115,358 40.40 4,660,809
2015-08-12 ALDR Alder Biopharmaceuticals Inc Sale 97,109 40.03 3,887,370
2015-05-21 CTXS Citrix Systems Inc Sale 20,000 65.69 1,313,839
2015-05-21 ALDR Alder Biopharmaceuticals Inc Sale 20,000 65.69 1,313,839
2015-03-25 CTXS Citrix Systems Inc Sale 38,936 63.16 2,459,197
2014-10-24 CTXS Citrix Systems Inc Sale 8,495 61.70 524,141
2014-10-24 CTXS Citrix Systems Inc Option Ex 8,495 43.16 366,644
2014-10-27 CTXS Citrix Systems Inc Option Ex 1,505 43.16 64,955
2014-04-25 CTXS Citrix Systems Inc Option Ex 7,636 31.57 241,068
2014-04-25 CTXS Citrix Systems Inc Sale 7,636 60.50 461,978
2014-04-28 CTXS Citrix Systems Inc Option Ex 2,364 31.57 74,631
2013-03-14 CTXS Citrix Systems Inc Option Ex 20,221 27.97 565,581
2013-03-15 CTXS Citrix Systems Inc Option Ex 9,779 27.97 273,518
2013-03-14 CTXS Citrix Systems Inc Sale 20,221 74.59 1,508,365
2012-11-14 CYTK Cytokinetics Inc Sale 1,742,950 .61 1,063,199
2012-02-16 CTXS Citrix Systems Inc Option Ex 36,345 20.53 746,053
2012-02-15 CTXS Citrix Systems Inc Option Ex 43,810 20.53 899,287
2012-02-15 CTXS Citrix Systems Inc Sale 43,810 75.00 3,285,750
2010-11-22 CTXS Citrix Systems Inc Option Ex 30,000 31.11 933,450
2010-03-03 CTXS Citrix Systems Inc Sale 108,182 43.89 4,748,432
2010-03-04 CTXS Citrix Systems Inc Sale 27,900 43.91 1,225,200
2010-01-26 CTXS Citrix Systems Inc Option Ex 20,000 25.37 507,400
2009-05-05 CTXS Citrix Systems Inc Sale 20,000 369.87 7,397,480
2009-05-05 CTXS Citrix Systems Inc Option Ex 20,000 20.45 409,000
2008-07-25 CTXS Citrix Systems Inc Sale 90,000 25.45 2,290,950
2008-07-25 CTXS Citrix Systems Inc Option Ex 90,000 17.89 1,610,100
2008-05-01 CTXS Citrix Systems Inc Option Ex 90,000 17.89 1,610,100
2008-05-01 CTXS Citrix Systems Inc Sale 90,000 32.56 2,930,580
2007-10-31 CTXS Citrix Systems Inc Buy 2,400 42.50 101,997
2007-08-17 CYTK Cytokinetics Inc Buy 20,000 5.07 101,420
2006-02-16 CYTK Cytokinetics Inc Buy 5,800 7.49 43,465
2006-02-15 CYTK Cytokinetics Inc Buy 1,200 7.20 8,640
2006-02-13 CYTK Cytokinetics Inc Buy 13,838 7.22 99,951
2006-02-14 CYTK Cytokinetics Inc Buy 19,162 7.21 138,119
2004-04-29 CYTK Cytokinetics Inc Buy 25,000 8.49 212,275

Insider trading activities including stock purchases, stock sales, and option exercises listed in the above table cannot be completely guaranteed as to their accuracy. For more information regarding the trades made by Dow Stephen M (Director of Alder Biopharmaceuticals Inc at the time of this reporting) see the Securities and Exchange Commission (SEC) website.